Time;durP1;ratioP1;P1;durP2;ratioP2;P2;SDS_P1;SDS_P2;PMS_P1;PMS_P2;Temp;Humidity;BMP_temperature;BMP_pressure;BME280_temperature;BME280_humidity;BME280_pressure;Samples;Min_cycle;Max_cycle;Signal;HPM_P1;HPM_P2
2022/09/23 00:00:29;;;;;;;2.17;1.33;;;9.90;99.90;;;;;;5031839;28;20187;-73
2022/09/23 00:02:55;;;;;;;4.80;1.57;;;9.90;99.90;;;;;;5031572;28;20893;-73
2022/09/23 00:05:20;;;;;;;1.93;1.63;;;9.90;99.90;;;;;;5031415;28;20860;-73
2022/09/23 00:07:47;;;;;;;1.60;1.37;;;9.90;99.90;;;;;;5031776;28;20194;-72
2022/09/23 00:10:13;;;;;;;2.70;1.00;;;10.00;99.90;;;;;;5031789;28;20163;-72
2022/09/23 00:12:38;;;;;;;1.97;1.30;;;10.00;99.90;;;;;;5032032;28;20767;-73
2022/09/23 00:15:04;;;;;;;2.33;1.57;;;10.00;99.90;;;;;;5031467;28;20678;-73
2022/09/23 00:17:31;;;;;;;1.73;1.57;;;9.90;99.90;;;;;;5031471;28;20191;-73
2022/09/23 00:19:56;;;;;;;1.60;1.30;;;10.00;99.90;;;;;;5031335;28;20416;-73
2022/09/23 00:22:22;;;;;;;4.80;1.47;;;9.90;99.90;;;;;;5031784;28;20402;-73
2022/09/23 00:24:48;;;;;;;2.10;1.27;;;9.90;99.90;;;;;;5031567;28;20178;-73
2022/09/23 00:27:14;;;;;;;1.50;1.40;;;9.80;99.90;;;;;;5031868;28;20528;-73
2022/09/23 00:29:39;;;;;;;3.47;1.60;;;9.80;99.90;;;;;;5031834;28;20399;-73
2022/09/23 00:32:05;;;;;;;2.60;1.37;;;9.80;99.90;;;;;;5031590;28;20528;-73
2022/09/23 00:34:30;;;;;;;2.37;1.43;;;9.70;99.90;;;;;;5031161;28;20257;-74
2022/09/23 00:36:56;;;;;;;2.23;2.00;;;9.70;99.90;;;;;;5030967;28;20207;-73
2022/09/23 00:39:22;;;;;;;2.73;1.90;;;9.70;99.90;;;;;;5031233;28;20175;-73
2022/09/23 00:41:48;;;;;;;7.67;1.80;;;9.70;99.90;;;;;;5031382;28;20168;-73
2022/09/23 00:44:42;;;;;;;6.00;2.50;;;9.70;99.90;;;;;;5030121;28;20414;-72
2022/09/23 00:47:51;;;;;;;4.63;2.20;;;9.70;99.90;;;;;;5031253;28;20413;-73
2022/09/23 00:50:41;;;;;;;2.83;2.20;;;9.80;99.90;;;;;;5020962;28;20414;-73
2022/09/23 00:53:12;;;;;;;4.00;2.57;;;9.70;99.90;;;;;;5031360;28;20423;-73
2022/09/23 00:55:45;;;;;;;4.47;2.93;;;9.80;99.90;;;;;;5030926;28;20493;-73
2022/09/23 00:58:14;;;;;;;8.47;2.90;;;9.80;99.90;;;;;;5032524;28;20405;-74
2022/09/23 01:00:41;;;;;;;3.70;2.77;;;9.70;99.90;;;;;;5034983;28;20968;-73
2022/09/23 01:03:08;;;;;;;8.67;3.17;;;9.70;99.90;;;;;;5034794;28;20548;-73
2022/09/23 01:05:35;;;;;;;4.07;2.83;;;9.70;99.90;;;;;;5034384;28;20452;-73
2022/09/23 01:08:03;;;;;;;2.87;2.37;;;9.60;99.90;;;;;;5034689;28;20406;-73
2022/09/23 01:10:56;;;;;;;3.00;2.40;;;9.70;99.90;;;;;;5033459;28;20418;-73
2022/09/23 01:13:47;;;;;;;3.13;2.80;;;9.70;99.90;;;;;;5034647;28;20499;-73
2022/09/23 01:16:31;;;;;;;3.00;2.70;;;9.60;99.90;;;;;;5034231;28;20457;-73
2022/09/23 01:18:56;;;;;;;4.13;2.40;;;9.50;99.90;;;;;;5034582;28;20399;-72
2022/09/23 01:21:29;;;;;;;3.00;2.30;;;9.50;99.90;;;;;;5034709;28;20485;-73
2022/09/23 01:24:13;;;;;;;3.40;2.07;;;9.50;99.90;;;;;;5034121;28;20167;-73
2022/09/23 01:26:55;;;;;;;4.53;2.77;;;9.50;99.90;;;;;;5034390;28;20445;-73
2022/09/23 01:29:32;;;;;;;2.83;2.53;;;9.50;99.90;;;;;;5034514;28;20529;-74
2022/09/23 01:32:30;;;;;;;2.33;2.00;;;9.60;99.90;;;;;;5034392;28;20409;-73
2022/09/23 01:35:37;;;;;;;4.90;2.53;;;9.50;99.90;;;;;;5033958;28;20430;-73
2022/09/23 01:38:03;;;;;;;4.10;2.80;;;9.50;99.90;;;;;;5034164;28;20394;-73
2022/09/23 01:40:44;;;;;;;4.83;2.53;;;9.50;99.90;;;;;;5032914;28;20413;-73
2022/09/23 01:43:17;;;;;;;5.77;2.67;;;9.50;99.90;;;;;;5034473;28;20163;-72
2022/09/23 01:45:46;;;;;;;3.33;2.97;;;9.50;99.90;;;;;;5033889;28;20425;-72
2022/09/23 01:48:27;;;;;;;6.13;2.97;;;9.50;99.90;;;;;;5033911;28;20421;-73
2022/09/23 01:51:15;;;;;;;5.17;2.90;;;9.50;99.90;;;;;;5034178;28;20769;-73
2022/09/23 01:54:20;;;;;;;5.10;3.43;;;9.50;99.90;;;;;;5034030;28;20769;-73
2022/09/23 01:56:56;;;;;;;8.60;2.90;;;9.50;99.90;;;;;;5033800;28;20450;-72
2022/09/23 01:59:30;;;;;;;4.83;3.30;;;9.40;99.90;;;;;;5033971;28;20390;-72
2022/09/23 02:02:09;;;;;;;4.10;3.70;;;9.40;99.90;;;;;;5033698;28;20479;-73
2022/09/23 02:04:43;;;;;;;3.30;2.93;;;9.40;99.90;;;;;;5032582;28;20414;-74
2022/09/23 02:07:14;;;;;;;5.10;3.20;;;9.30;99.90;;;;;;5033709;28;20421;-73
2022/09/23 02:09:44;;;;;;;4.23;3.30;;;9.30;99.90;;;;;;5031424;28;20403;-73
2022/09/23 02:12:15;;;;;;;6.43;3.13;;;9.20;99.90;;;;;;5033701;28;20492;-73
2022/09/23 02:14:57;;;;;;;4.57;3.60;;;9.20;99.90;;;;;;5031810;28;20448;-72
2022/09/23 02:17:35;;;;;;;5.33;3.17;;;9.30;99.90;;;;;;5033440;28;20406;-73
2022/09/23 02:20:03;;;;;;;4.07;3.20;;;9.20;99.90;;;;;;5033450;28;20463;-73
2022/09/23 02:22:38;;;;;;;4.40;3.47;;;9.20;99.90;;;;;;5033626;28;20407;-74
2022/09/23 02:25:05;;;;;;;4.83;3.67;;;9.10;99.90;;;;;;5033299;28;20425;-73
2022/09/23 02:28:15;;;;;;;4.93;3.97;;;9.00;99.90;;;;;;5032075;28;20418;-73
2022/09/23 02:30:48;;;;;;;5.07;3.90;;;9.00;99.90;;;;;;5011152;28;20836;-74
2022/09/23 02:33:21;;;;;;;5.80;4.03;;;9.00;99.90;;;;;;5011372;28;20457;-74
2022/09/23 02:35:53;;;;;;;6.03;3.80;;;8.90;99.90;;;;;;5023873;28;20512;-73
2022/09/23 02:38:43;;;;;;;7.77;4.70;;;8.90;99.90;;;;;;5033324;28;20570;-73
2022/09/23 02:41:28;;;;;;;4.30;3.90;;;8.80;99.90;;;;;;5032849;28;20399;-72
2022/09/23 02:44:06;;;;;;;6.00;3.20;;;8.90;99.90;;;;;;5032751;28;20397;-73
2022/09/23 02:46:32;;;;;;;5.17;3.77;;;8.90;99.90;;;;;;5031744;28;20496;-73
2022/09/23 02:49:00;;;;;;;5.33;3.40;;;8.90;99.90;;;;;;5032990;28;20467;-74
2022/09/23 02:51:27;;;;;;;10.50;6.63;;;8.90;99.90;;;;;;5031663;28;20406;-73
2022/09/23 02:53:55;;;;;;;8.50;7.03;;;8.90;99.90;;;;;;5033043;28;20394;-73
2022/09/23 02:56:21;;;;;;;4.50;3.37;;;8.80;99.90;;;;;;5032479;28;20450;-74
2022/09/23 02:58:50;;;;;;;4.43;2.80;;;8.80;99.90;;;;;;5032578;28;20409;-74
2022/09/23 03:01:18;;;;;;;3.63;2.57;;;8.80;99.90;;;;;;5032616;28;20195;-73
2022/09/23 03:04:09;;;;;;;5.03;3.40;;;8.70;99.90;;;;;;5032580;28;20406;-73
2022/09/23 03:06:54;;;;;;;3.90;3.23;;;8.70;99.90;;;;;;5032316;28;20426;-73
2022/09/23 03:09:30;;;;;;;5.03;3.30;;;8.70;99.90;;;;;;5032572;28;20405;-73
2022/09/23 03:12:18;;;;;;;4.43;3.00;;;8.70;99.90;;;;;;5032349;28;20394;-73
2022/09/23 03:14:57;;;;;;;6.00;3.57;;;8.70;99.90;;;;;;5030952;28;20410;-73
2022/09/23 03:17:36;;;;;;;4.93;3.23;;;8.70;99.90;;;;;;5032366;28;20398;-72
2022/09/23 03:20:08;;;;;;;6.83;4.77;;;8.70;99.90;;;;;;5032288;28;20402;-72
2022/09/23 03:22:39;;;;;;;4.40;3.50;;;8.60;99.90;;;;;;5031908;28;20548;-72
2022/09/23 03:25:10;;;;;;;10.40;4.80;;;8.60;99.90;;;;;;5031785;28;20501;-72
2022/09/23 03:27:36;;;;;;;6.20;4.30;;;8.60;99.90;;;;;;5032322;28;20406;-72
2022/09/23 03:30:04;;;;;;;11.00;5.50;;;8.60;99.90;;;;;;5032542;28;20909;-72
2022/09/23 03:32:32;;;;;;;7.93;4.70;;;8.70;99.90;;;;;;5032408;28;20866;-72
2022/09/23 03:34:59;;;;;;;4.10;3.70;;;8.70;99.90;;;;;;5031931;28;20406;-72
2022/09/23 03:37:30;;;;;;;5.50;3.90;;;8.70;99.90;;;;;;5032407;28;20488;-72
2022/09/23 03:40:24;;;;;;;4.73;4.03;;;8.60;99.90;;;;;;5031019;28;20410;-72
2022/09/23 03:42:50;;;;;;;6.43;4.27;;;8.60;99.90;;;;;;5029549;28;20780;-73
2022/09/23 03:45:22;;;;;;;7.33;5.77;;;8.50;99.90;;;;;;5032045;28;20418;-73
2022/09/23 03:47:48;;;;;;;6.57;4.87;;;8.50;99.90;;;;;;5032305;28;20516;-72
2022/09/23 03:50:16;;;;;;;5.30;4.30;;;8.50;99.90;;;;;;5032040;28;20434;-72
2022/09/23 03:52:42;;;;;;;6.70;4.53;;;8.50;99.90;;;;;;5032260;28;20198;-72
2022/09/23 03:55:08;;;;;;;7.67;4.97;;;8.50;99.90;;;;;;5031291;28;21245;-73
2022/09/23 03:57:35;;;;;;;5.60;4.00;;;8.40;99.90;;;;;;5032004;28;20402;-73
2022/09/23 04:00:01;;;;;;;4.93;4.30;;;8.40;99.90;;;;;;5031827;28;20411;-73
2022/09/23 04:02:26;;;;;;;6.90;4.60;;;8.50;99.90;;;;;;5031601;28;20517;-73
2022/09/23 04:04:52;;;;;;;6.13;4.37;;;8.50;99.90;;;;;;5031343;28;20845;-74
2022/09/23 04:07:18;;;;;;;8.70;4.80;;;8.50;99.90;;;;;;5032050;28;20250;-73
2022/09/23 04:09:43;;;;;;;7.40;4.93;;;8.50;99.90;;;;;;5032059;28;20170;-74
2022/09/23 04:12:13;;;;;;;5.43;3.90;;;8.40;99.90;;;;;;5031872;28;20485;-73
2022/09/23 04:14:39;;;;;;;4.63;4.10;;;8.40;99.90;;;;;;5031480;28;20194;-73
2022/09/23 04:17:05;;;;;;;11.43;3.63;;;8.30;99.90;;;;;;5031461;28;20454;-72
2022/09/23 04:19:30;;;;;;;8.33;4.80;;;8.30;99.90;;;;;;5031643;28;20160;-71
2022/09/23 04:21:56;;;;;;;7.40;4.20;;;8.20;99.90;;;;;;5032044;28;20755;-73
2022/09/23 04:24:22;;;;;;;5.13;4.50;;;8.10;99.90;;;;;;5031673;28;20250;-73
2022/09/23 04:26:54;;;;;;;6.50;4.50;;;8.10;99.90;;;;;;5031886;28;20244;-73
2022/09/23 04:29:20;;;;;;;5.00;4.27;;;8.10;99.90;;;;;;5031942;28;20170;-74
2022/09/23 04:31:46;;;;;;;4.60;4.20;;;8.00;99.90;;;;;;5030232;28;20410;-74
2022/09/23 04:34:12;;;;;;;4.73;4.20;;;8.00;99.90;;;;;;5034525;28;20872;-74
2022/09/23 04:36:38;;;;;;;9.03;5.60;;;8.00;99.90;;;;;;5035220;28;20460;-73
2022/09/23 04:39:04;;;;;;;6.87;4.33;;;7.90;99.90;;;;;;5035273;28;20903;-73
2022/09/23 04:41:29;;;;;;;10.10;5.87;;;7.90;99.90;;;;;;5035264;28;20689;-71
2022/09/23 04:43:56;;;;;;;10.00;5.20;;;8.00;99.90;;;;;;5035233;28;20163;-71
2022/09/23 04:46:22;;;;;;;6.60;4.23;;;8.10;99.90;;;;;;5034876;28;20270;-72
2022/09/23 04:48:48;;;;;;;8.43;5.10;;;8.00;99.90;;;;;;5033848;28;20406;-72
2022/09/23 04:51:19;;;;;;;15.03;5.70;;;8.00;99.90;;;;;;5035280;28;21298;-73
2022/09/23 04:53:47;;;;;;;5.77;4.70;;;7.90;99.90;;;;;;5035154;28;20675;-72
2022/09/23 04:56:15;;;;;;;6.13;5.00;;;7.90;99.90;;;;;;5033063;28;20454;-72
2022/09/23 04:58:40;;;;;;;5.47;4.17;;;8.00;99.90;;;;;;5034895;28;20437;-71
2022/09/23 05:01:18;;;;;;;5.63;4.40;;;8.10;99.90;;;;;;5035001;28;20430;-71
2022/09/23 05:03:45;;;;;;;9.27;5.10;;;8.10;99.90;;;;;;5034777;28;20402;-72
2022/09/23 05:06:12;;;;;;;7.43;4.13;;;8.10;99.90;;;;;;5034675;28;20786;-73
2022/09/23 05:08:39;;;;;;;6.60;5.33;;;8.00;99.90;;;;;;5033559;28;20771;-73
2022/09/23 05:11:05;;;;;;;8.73;5.50;;;8.10;99.90;;;;;;5034885;28;20763;-73
2022/09/23 05:13:31;;;;;;;8.63;5.73;;;8.10;99.90;;;;;;5034707;28;20395;-73
2022/09/23 05:16:02;;;;;;;6.27;5.10;;;8.10;99.90;;;;;;5034568;28;20454;-73
2022/09/23 05:18:35;;;;;;;5.90;4.43;;;8.00;99.90;;;;;;5033567;28;20824;-73
2022/09/23 05:21:02;;;;;;;6.40;5.17;;;8.00;99.90;;;;;;5034631;28;20406;-73
2022/09/23 05:23:28;;;;;;;6.67;4.17;;;8.00;99.90;;;;;;5034515;28;20417;-73
2022/09/23 05:25:58;;;;;;;6.03;4.23;;;8.00;99.90;;;;;;5034194;28;20430;-73
2022/09/23 05:28:25;;;;;;;5.33;4.30;;;7.90;99.90;;;;;;5034620;28;20409;-73
2022/09/23 05:30:51;;;;;;;7.20;4.70;;;8.00;99.90;;;;;;5034635;28;20402;-74
2022/09/23 05:33:16;;;;;;;5.43;4.50;;;8.00;99.90;;;;;;5034250;28;20472;-73
2022/09/23 05:35:46;;;;;;;7.63;4.73;;;8.00;99.90;;;;;;5032617;28;20203;-72
2022/09/23 05:38:15;;;;;;;7.23;4.83;;;8.10;99.90;;;;;;5033116;28;20176;-73
2022/09/23 05:40:40;;;;;;;7.33;4.53;;;8.00;99.90;;;;;;5034177;28;20410;-73
2022/09/23 05:43:06;;;;;;;11.17;5.10;;;7.90;99.90;;;;;;5034170;28;20394;-73
2022/09/23 05:45:31;;;;;;;10.63;4.30;;;8.00;99.90;;;;;;5033523;28;20559;-74
2022/09/23 05:47:57;;;;;;;5.40;4.20;;;8.00;99.90;;;;;;5032831;28;20179;-73
2022/09/23 05:50:22;;;;;;;6.20;4.20;;;8.00;99.90;;;;;;5032980;28;20172;-73
2022/09/23 05:52:48;;;;;;;5.47;4.33;;;8.10;99.90;;;;;;5034092;28;20175;-73
2022/09/23 05:55:14;;;;;;;5.73;4.60;;;8.10;99.90;;;;;;5033345;28;20571;-73
2022/09/23 05:57:39;;;;;;;4.90;3.73;;;8.10;99.90;;;;;;5034244;28;20213;-73
2022/09/23 06:00:06;;;;;;;6.30;4.07;;;8.30;99.90;;;;;;5032494;28;20422;-73
2022/09/23 06:02:31;;;;;;;8.70;4.70;;;8.30;99.90;;;;;;5033683;28;20187;-73
2022/09/23 06:04:57;;;;;;;6.13;3.83;;;8.40;99.90;;;;;;5033766;28;20403;-73
2022/09/23 06:07:23;;;;;;;4.90;3.83;;;8.50;99.90;;;;;;5033769;28;20163;-73
2022/09/23 06:09:49;;;;;;;4.93;4.40;;;8.60;99.90;;;;;;5033674;28;20213;-74
2022/09/23 06:12:14;;;;;;;7.63;5.50;;;8.70;99.90;;;;;;5034040;28;20166;-74
2022/09/23 06:14:40;;;;;;;9.80;5.70;;;8.80;99.90;;;;;;5033811;28;20398;-74
2022/09/23 06:17:05;;;;;;;5.07;4.53;;;8.80;99.90;;;;;;5032716;28;20269;-73
2022/09/23 06:19:31;;;;;;;10.57;6.03;;;8.80;99.90;;;;;;5033745;28;20265;-72
2022/09/23 06:21:57;;;;;;;6.77;4.67;;;9.00;99.90;;;;;;5032283;28;20266;-73
2022/09/23 06:24:22;;;;;;;7.17;4.77;;;9.10;99.90;;;;;;5031958;28;20168;-73
2022/09/23 06:26:48;;;;;;;5.17;4.10;;;9.20;99.90;;;;;;5032243;28;20290;-72
2022/09/23 06:29:13;;;;;;;4.70;3.63;;;9.30;99.90;;;;;;5033638;28;20176;-72
2022/09/23 06:31:42;;;;;;;6.87;5.00;;;9.40;99.90;;;;;;5033285;28;20183;-72
2022/09/23 06:34:10;;;;;;;5.27;3.67;;;9.50;99.90;;;;;;5033277;28;20168;-73
2022/09/23 06:36:35;;;;;;;6.87;4.90;;;9.60;99.90;;;;;;5031745;28;20535;-73
2022/09/23 06:39:01;;;;;;;5.37;3.63;;;9.80;99.90;;;;;;5033363;28;20411;-75
2022/09/23 06:41:27;;;;;;;7.10;4.70;;;9.90;99.90;;;;;;5033768;28;20620;-74
2022/09/23 06:43:52;;;;;;;3.90;3.43;;;10.00;99.90;;;;;;5033132;28;20175;-73
2022/09/23 06:46:19;;;;;;;6.90;4.40;;;10.10;99.90;;;;;;5031499;28;20227;-73
2022/09/23 06:48:45;;;;;;;7.57;3.83;;;10.30;99.90;;;;;;5032952;28;20539;-73
2022/09/23 06:51:18;;;;;;;4.60;4.07;;;10.40;99.90;;;;;;5031799;28;20422;-73
2022/09/23 06:53:47;;;;;;;5.27;3.43;;;10.50;99.90;;;;;;5033012;28;20192;-74
2022/09/23 06:56:16;;;;;;;4.80;3.30;;;10.70;99.90;;;;;;5031698;28;20541;-73
2022/09/23 06:58:42;;;;;;;7.53;4.03;;;10.90;99.90;;;;;;5032867;28;20536;-73
2022/09/23 07:01:10;;;;;;;5.87;4.27;;;11.10;99.90;;;;;;5032913;28;20991;-73
2022/09/23 07:03:37;;;;;;;6.13;4.30;;;11.30;99.90;;;;;;5031486;28;20190;-73
2022/09/23 07:06:03;;;;;;;12.13;4.50;;;11.50;99.90;;;;;;5032428;28;20426;-73
2022/09/23 07:08:30;;;;;;;4.60;4.10;;;11.70;99.90;;;;;;5032657;28;20403;-72
2022/09/23 07:10:57;;;;;;;3.40;3.10;;;11.90;99.90;;;;;;5032799;28;20410;-72
2022/09/23 07:13:23;;;;;;;4.87;4.10;;;12.10;99.90;;;;;;5032467;28;20455;-72
2022/09/23 07:15:53;;;;;;;6.13;3.67;;;12.40;99.90;;;;;;5032242;28;20854;-72
2022/09/23 07:18:22;;;;;;;7.07;3.80;;;12.70;99.90;;;;;;5032387;28;20414;-74
2022/09/23 07:20:48;;;;;;;4.17;3.77;;;12.90;99.90;;;;;;5032369;28;20790;-72
2022/09/23 07:23:13;;;;;;;5.30;3.80;;;13.10;99.90;;;;;;5032269;28;20403;-72
2022/09/23 07:25:39;;;;;;;4.40;3.50;;;13.30;99.90;;;;;;5032050;28;20741;-72
2022/09/23 07:28:05;;;;;;;4.67;3.90;;;13.50;99.90;;;;;;5032477;28;20171;-72
2022/09/23 07:30:34;;;;;;;5.40;3.60;;;13.70;99.90;;;;;;5032434;28;20546;-72
2022/09/23 07:33:00;;;;;;;5.73;3.37;;;13.90;99.90;;;;;;5032145;28;20411;-73
2022/09/23 07:35:26;;;;;;;3.77;3.30;;;14.10;99.90;;;;;;5032012;28;20450;-73
2022/09/23 07:37:52;;;;;;;4.00;3.60;;;14.20;99.90;;;;;;5030986;28;20547;-72
2022/09/23 07:40:18;;;;;;;4.10;2.80;;;14.30;99.90;;;;;;5032301;28;20472;-72
2022/09/23 07:42:43;;;;;;;5.23;3.20;;;14.40;99.90;;;;;;5032211;28;20167;-72
2022/09/23 07:45:09;;;;;;;5.50;3.77;;;14.50;99.90;;;;;;5031716;28;20207;-72
2022/09/23 07:47:35;;;;;;;6.93;4.00;;;14.70;99.90;;;;;;5032076;28;20190;-73
2022/09/23 07:50:00;;;;;;;5.40;3.17;;;14.80;99.90;;;;;;5032152;28;20187;-73
2022/09/23 07:52:26;;;;;;;3.73;3.17;;;14.90;99.90;;;;;;5032078;28;20204;-73
2022/09/23 07:54:51;;;;;;;2.93;2.63;;;15.10;99.90;;;;;;5031749;28;20172;-73
2022/09/23 07:57:17;;;;;;;3.23;2.60;;;15.30;99.90;;;;;;5032021;28;20172;-74
2022/09/23 07:59:43;;;;;;;4.80;4.20;;;15.40;99.90;;;;;;5032228;28;20176;-73
2022/09/23 08:02:11;;;;;;;3.47;3.17;;;15.50;99.90;;;;;;5030590;28;20194;-73
2022/09/23 08:04:36;;;;;;;6.20;3.30;;;15.70;99.90;;;;;;5031635;28;20641;-73
2022/09/23 08:07:04;;;;;;;3.63;3.27;;;15.70;99.90;;;;;;5032800;28;20521;-73
2022/09/23 08:09:40;;;;;;;6.33;3.97;;;15.80;99.90;;;;;;5036156;28;20189;-73
2022/09/23 08:12:08;;;;;;;4.87;3.03;;;15.90;99.90;;;;;;5035921;28;20410;-73
2022/09/23 08:14:33;;;;;;;4.20;3.47;;;16.00;99.90;;;;;;5035614;28;20420;-72
2022/09/23 08:16:59;;;;;;;3.20;2.90;;;16.10;99.90;;;;;;5035732;28;20825;-73
2022/09/23 08:19:25;;;;;;;2.97;2.73;;;16.30;99.90;;;;;;5035758;28;20565;-72
2022/09/23 08:21:51;;;;;;;4.53;2.90;;;16.40;99.90;;;;;;5035618;28;20621;-72
2022/09/23 08:24:19;;;;;;;6.07;3.00;;;16.50;99.90;;;;;;5035530;28;20563;-73
2022/09/23 08:26:46;;;;;;;4.07;2.93;;;16.50;99.90;;;;;;5035622;28;20846;-73
2022/09/23 08:29:13;;;;;;;4.50;3.67;;;16.60;99.90;;;;;;5034189;28;20467;-73
2022/09/23 08:31:39;;;;;;;5.30;3.10;;;16.80;99.90;;;;;;5035523;28;20821;-73
2022/09/23 08:34:05;;;;;;;3.17;2.80;;;17.00;99.90;;;;;;5035513;28;20406;-72
2022/09/23 08:36:31;;;;;;;3.80;2.17;;;17.20;99.90;;;;;;5035141;28;20207;-73
2022/09/23 08:38:57;;;;;;;4.00;2.30;;;17.40;99.90;;;;;;5035588;28;20410;-73
2022/09/23 08:41:59;;;;;;;3.87;2.87;;;18.00;99.90;;;;;;5035429;28;20409;-74
2022/09/23 08:44:48;;;;;;;8.07;3.33;;;18.50;99.90;;;;;;5035012;28;20163;-74
2022/09/23 08:47:33;;;;;;;6.77;3.50;;;18.90;99.90;;;;;;5034478;28;20421;-73
2022/09/23 08:50:07;;;;;;;5.43;2.97;;;18.90;99.90;;;;;;5035094;28;20493;-73
2022/09/23 08:52:51;;;;;;;5.00;3.27;;;19.20;99.90;;;;;;5034999;28;20863;-74
2022/09/23 08:55:18;;;;;;;3.87;3.17;;;19.40;99.90;;;;;;5034440;28;20461;-73
2022/09/23 08:58:20;;;;;;;5.10;2.90;;;19.70;99.90;;;;;;5033782;28;20472;-74
2022/09/23 09:01:12;;;;;;;3.40;2.90;;;20.20;99.90;;;;;;5035006;28;20488;-73
2022/09/23 09:03:45;;;;;;;7.47;2.87;;;20.90;99.90;;;;;;5034465;28;20438;-73
2022/09/23 09:06:31;;;;;;;5.60;3.60;;;20.90;99.90;;;;;;5034821;28;20426;-73
2022/09/23 09:09:01;;;;;;;4.00;2.47;;;21.40;99.90;;;;;;5035005;28;20755;-74
2022/09/23 09:11:42;;;;;;;4.37;3.07;;;21.80;99.90;;;;;;5035023;28;20840;-73
2022/09/23 09:14:42;;;;;;;3.50;3.20;;;22.30;96.30;;;;;;5035139;28;20445;-75
2022/09/23 09:17:23;;;;;;;3.43;2.57;;;22.70;93.40;;;;;;5034730;28;20453;-73
2022/09/23 09:20:02;;;;;;;3.13;2.17;;;23.20;91.30;;;;;;5033991;28;20418;-73
2022/09/23 09:22:39;;;;;;;4.60;2.93;;;24.10;91.40;;;;;;5034601;28;20501;-72
2022/09/23 09:25:32;;;;;;;2.77;2.23;;;24.60;83.60;;;;;;5034441;28;20416;-73
2022/09/23 09:27:58;;;;;;;4.67;3.30;;;25.00;80.40;;;;;;5034526;28;20397;-73
2022/09/23 09:30:24;;;;;;;7.53;3.53;;;25.60;77.00;;;;;;5034562;28;20411;-73
2022/09/23 09:32:55;;;;;;;3.00;2.70;;;25.90;71.10;;;;;;5034798;28;20905;-73
2022/09/23 09:35:37;;;;;;;2.90;2.60;;;26.50;69.40;;;;;;5032996;28;20830;-73
2022/09/23 09:38:04;;;;;;;12.03;3.70;;;27.00;67.70;;;;;;5034195;28;20441;-73
2022/09/23 09:40:31;;;;;;;5.00;3.10;;;27.00;62.20;;;;;;5034182;28;20402;-74
2022/09/23 09:42:56;;;;;;;5.30;3.00;;;27.20;63.10;;;;;;5034391;28;20410;-72
2022/09/23 09:45:22;;;;;;;6.30;3.10;;;27.60;59.70;;;;;;5034068;28;20425;-72
2022/09/23 09:48:02;;;;;;;9.57;3.10;;;28.00;59.60;;;;;;5034319;28;20163;-72
2022/09/23 09:50:48;;;;;;;2.93;2.63;;;28.40;57.20;;;;;;5034181;28;20464;-73
2022/09/23 09:53:29;;;;;;;5.37;3.37;;;28.90;56.40;;;;;;5034104;28;20409;-72
2022/09/23 09:56:05;;;;;;;4.07;2.90;;;28.90;54.40;;;;;;5033724;28;20460;-73
2022/09/23 09:58:42;;;;;;;7.47;4.07;;;28.60;54.70;;;;;;5034022;28;20390;-73
2022/09/23 10:01:20;;;;;;;4.80;3.17;;;29.20;53.70;;;;;;5032921;28;20424;-73
2022/09/23 10:03:47;;;;;;;5.50;2.87;;;29.50;53.10;;;;;;5033051;28;20502;-73
2022/09/23 10:06:23;;;;;;;4.40;2.80;;;29.30;51.70;;;;;;5032293;28;20500;-73
2022/09/23 10:09:16;;;;;;;3.10;2.80;;;29.00;52.70;;;;;;5033167;28;20793;-72
2022/09/23 10:12:00;;;;;;;3.40;2.67;;;28.50;52.30;;;;;;5030302;28;20994;-73
2022/09/23 10:14:28;;;;;;;3.20;2.90;;;28.00;51.80;;;;;;5032084;28;20410;-73
2022/09/23 10:17:04;;;;;;;5.80;2.83;;;27.60;53.00;;;;;;5033343;28;20549;-73
2022/09/23 10:19:30;;;;;;;8.80;3.40;;;27.30;54.70;;;;;;5032089;28;20406;-73
2022/09/23 10:21:59;;;;;;;3.80;2.90;;;27.20;54.40;;;;;;5033160;28;20445;-72
2022/09/23 10:24:31;;;;;;;4.43;3.33;;;27.40;53.40;;;;;;5032931;28;20564;-73
2022/09/23 10:26:57;;;;;;;4.47;3.00;;;27.10;54.10;;;;;;5033206;28;20434;-73
2022/09/23 10:29:45;;;;;;;5.07;3.30;;;27.00;55.30;;;;;;5033178;28;20411;-73
2022/09/23 10:32:25;;;;;;;3.13;2.83;;;27.10;53.80;;;;;;5032214;28;20417;-72
2022/09/23 10:34:57;;;;;;;3.07;2.70;;;26.90;52.70;;;;;;5032934;28;20452;-73
2022/09/23 10:37:29;;;;;;;3.40;2.83;;;26.90;55.30;;;;;;5033050;28;20399;-73
2022/09/23 10:49:15;;;;;;;2.60;2.13;;;28.30;52.40;;;;;;5032882;28;20397;-73
2022/09/23 10:52:22;;;;;;;3.77;2.63;;;28.90;52.60;;;;;;5069052;28;20511;-73
2022/09/23 10:54:54;;;;;;;4.23;2.53;;;30.00;52.00;;;;;;5059413;28;20415;-73
2022/09/23 10:57:39;;;;;;;4.93;2.73;;;31.00;50.00;;;;;;5069074;28;20400;-73
2022/09/23 11:00:42;;;;;;;6.40;2.10;;;31.30;49.60;;;;;;5068987;28;20464;-73
2022/09/23 11:03:52;;;;;;;3.03;1.90;;;32.20;47.40;;;;;;5068777;28;20762;-73
2022/09/23 11:07:00;;;;;;;2.50;1.90;;;33.00;46.50;;;;;;5068932;28;20928;-73
2022/09/23 11:09:39;;;;;;;3.20;2.87;;;33.20;46.50;;;;;;5068613;28;20388;-72
2022/09/23 11:12:27;;;;;;;3.63;2.47;;;32.90;46.10;;;;;;5068856;28;20722;-73
2022/09/23 11:15:23;;;;;;;3.23;2.80;;;32.60;46.20;;;;;;5068628;28;20405;-73
2022/09/23 11:18:09;;;;;;;5.53;2.50;;;31.80;44.40;;;;;;5068586;28;20401;-72
2022/09/23 11:20:53;;;;;;;3.50;2.60;;;31.30;46.20;;;;;;5068638;28;20487;-73
2022/09/23 11:23:41;;;;;;;2.30;2.00;;;31.00;47.40;;;;;;5068560;28;20393;-73
2022/09/23 11:26:16;;;;;;;4.30;2.40;;;30.40;47.70;;;;;;5068079;28;20424;-73
2022/09/23 11:29:22;;;;;;;3.77;2.33;;;30.10;48.90;;;;;;5068238;28;20465;-73
2022/09/23 11:32:26;;;;;;;2.93;2.53;;;29.70;49.20;;;;;;5068520;28;20408;-73
2022/09/23 11:35:15;;;;;;;6.53;2.30;;;29.30;47.90;;;;;;5068032;28;20741;-73
2022/09/23 11:37:46;;;;;;;4.00;2.13;;;28.80;48.20;;;;;;5068372;28;20757;-74
2022/09/23 11:40:17;;;;;;;4.70;2.47;;;28.40;50.50;;;;;;5066922;28;20416;-74
2022/09/23 11:43:12;;;;;;;3.70;2.50;;;28.10;51.00;;;;;;5067037;28;20500;-73
2022/09/23 11:45:57;;;;;;;3.10;2.80;;;28.00;50.00;;;;;;5066670;28;20432;-73
2022/09/23 11:48:31;;;;;;;4.40;2.40;;;27.70;49.80;;;;;;5068120;28;20874;-74
2022/09/23 11:50:59;;;;;;;3.23;2.13;;;27.50;50.20;;;;;;5066416;28;20460;-73
2022/09/23 11:53:30;;;;;;;3.30;2.50;;;27.50;51.20;;;;;;5066510;28;20815;-73
2022/09/23 11:56:06;;;;;;;6.63;2.67;;;27.50;51.80;;;;;;5067673;28;20427;-73
2022/09/23 11:59:04;;;;;;;4.20;2.70;;;28.00;50.40;;;;;;5067867;28;20733;-72
2022/09/23 12:01:34;;;;;;;3.53;2.67;;;28.30;50.10;;;;;;5063250;28;20942;-72
2022/09/23 12:04:18;;;;;;;3.40;3.10;;;28.50;50.30;;;;;;5053309;28;20417;-72
2022/09/23 12:06:53;;;;;;;2.67;2.30;;;29.00;50.80;;;;;;5053147;28;20440;-73
2022/09/23 12:09:31;;;;;;;3.33;2.77;;;29.60;48.30;;;;;;5053314;28;20416;-73
2022/09/23 12:12:07;;;;;;;3.80;2.90;;;30.10;47.00;;;;;;5054536;28;20432;-74
2022/09/23 12:14:53;;;;;;;2.50;2.20;;;30.20;47.00;;;;;;5054211;28;20848;-74
2022/09/23 12:17:45;;;;;;;3.13;2.00;;;30.40;47.10;;;;;;5054263;28;20425;-74
2022/09/23 12:20:24;;;;;;;4.47;2.83;;;30.80;47.10;;;;;;5054245;28;20382;-74
2022/09/23 12:23:18;;;;;;;3.03;2.40;;;31.00;45.40;;;;;;5054032;28;20473;-74
2022/09/23 12:25:45;;;;;;;7.43;2.60;;;31.10;45.00;;;;;;5053860;28;20421;-72
2022/09/23 12:28:28;;;;;;;2.87;2.10;;;31.10;45.00;;;;;;5053988;28;20405;-73
2022/09/23 12:30:57;;;;;;;3.37;2.10;;;30.80;45.00;;;;;;5052770;28;20452;-73
2022/09/23 12:33:28;;;;;;;3.83;2.20;;;30.90;46.30;;;;;;5052593;28;20455;-73
2022/09/23 12:36:05;;;;;;;4.13;2.37;;;30.70;46.30;;;;;;5053634;28;20421;-73
2022/09/23 12:38:31;;;;;;;3.33;2.23;;;30.30;44.50;;;;;;5053642;28;20407;-74
2022/09/23 12:40:58;;;;;;;2.00;1.80;;;29.80;46.10;;;;;;5053865;28;20401;-72
2022/09/23 12:43:28;;;;;;;2.07;1.87;;;29.50;46.00;;;;;;5053770;28;20163;-72
2022/09/23 12:46:15;;;;;;;2.00;1.70;;;29.10;44.30;;;;;;5053651;28;20432;-73
2022/09/23 12:49:01;;;;;;;6.40;1.70;;;28.90;46.50;;;;;;5053901;28;20457;-73
2022/09/23 12:51:29;;;;;;;2.37;1.80;;;28.50;46.20;;;;;;5053763;28;20452;-73
2022/09/23 12:53:57;;;;;;;1.83;1.60;;;28.60;45.80;;;;;;5052387;28;20454;-73
2022/09/23 12:56:47;;;;;;;3.33;1.87;;;28.40;47.10;;;;;;5053557;28;20426;-73
2022/09/23 12:59:49;;;;;;;2.40;1.90;;;28.60;46.00;;;;;;5053281;28;20447;-73
2022/09/23 13:02:30;;;;;;;5.90;1.70;;;28.90;47.20;;;;;;5053434;28;20523;-73
2022/09/23 13:07:48;;;;;;;10.00;4.77;;;29.60;45.90;;;;;;5053509;28;20404;-73
2022/09/23 13:10:42;;;;;;;3.13;2.60;;;29.70;46.90;;;;;;5053312;28;20448;-74
2022/09/23 13:13:19;;;;;;;1.87;1.60;;;29.30;43.90;;;;;;5052387;28;20433;-72
2022/09/23 13:15:45;;;;;;;6.63;1.57;;;28.70;46.60;;;;;;5052776;28;20413;-72
2022/09/23 13:18:20;;;;;;;1.50;1.40;;;28.00;45.70;;;;;;5053068;28;20409;-72
2022/09/23 13:20:53;;;;;;;2.73;1.73;;;27.30;48.30;;;;;;5052870;28;20405;-73
2022/09/23 13:23:32;;;;;;;2.03;1.50;;;26.70;47.90;;;;;;5052914;28;20408;-73
2022/09/23 13:26:10;;;;;;;2.07;1.43;;;26.00;47.70;;;;;;5052769;28;20425;-73
2022/09/23 13:28:52;;;;;;;1.93;1.50;;;25.40;49.90;;;;;;5053120;28;20401;-73
2022/09/23 13:31:19;;;;;;;2.00;1.40;;;24.90;50.30;;;;;;5052937;28;20946;-73
2022/09/23 13:33:53;;;;;;;1.70;1.47;;;24.40;50.80;;;;;;5053349;28;20402;-74